Time;durP1;ratioP1;P1;durP2;ratioP2;P2;SDS_P1;SDS_P2;PMS_P1;PMS_P2;Temp;Humidity;BMP_temperature;BMP_pressure;BME280_temperature;BME280_humidity;BME280_pressure;Samples;Min_cycle;Max_cycle;Signal;HPM_P1;HPM_P2
2021/12/28 00:02:12;;;;;;;31.05;15.85;;;;;;;2.23;38.35;99955.95;2194762;86;25765;-81
2021/12/28 00:09:21;;;;;;;;;;;;;;;2.22;38.33;99945.58;2174843;90;25967;-83
2021/12/28 00:12:54;;;;;;;36.85;16.02;;;;;;;2.20;38.34;99945.52;2199595;87;25675;-82
2021/12/28 00:20:19;;;;;;;34.10;16.80;;;;;;;2.15;38.40;99949.53;2175992;89;25743;-82
2021/12/28 00:23:50;;;;;;;29.87;16.12;;;;;;;2.13;38.43;99944.33;2167473;89;25756;-81
2021/12/28 00:27:34;;;;;;;30.70;15.28;;;;;;;2.10;38.49;99944.58;2132055;90;25748;-82
2021/12/28 00:31:24;;;;;;;30.82;16.87;;;;;;;2.07;38.48;99937.58;2130473;89;26320;-80
2021/12/28 00:35:14;;;;;;;30.05;15.78;;;;;;;2.05;38.56;99929.30;2131652;90;25982;-81
2021/12/28 00:38:44;;;;;;;27.85;16.27;;;;;;;2.02;38.54;99940.31;2113896;90;25875;-81
2021/12/28 00:42:17;;;;;;;31.27;17.12;;;;;;;1.99;38.55;99941.84;2097010;91;25767;-81
2021/12/28 00:45:55;;;;;;;30.20;14.78;;;;;;;1.97;38.59;99938.34;2095272;92;25845;-82
2021/12/28 00:49:41;;;;;;;29.02;15.13;;;;;;;1.94;38.60;99938.17;2096981;92;25833;-82
2021/12/28 00:53:03;;;;;;;28.17;14.93;;;;;;;1.90;38.65;99939.71;2073035;93;25821;-81
2021/12/28 00:56:32;;;;;;;27.82;15.18;;;;;;;1.87;38.69;99931.44;2048616;95;25772;-81
2021/12/28 01:00:01;;;;;;;27.48;14.53;;;;;;;1.85;38.72;99939.86;2078169;94;25835;-82
2021/12/28 01:03:36;;;;;;;29.00;15.00;;;;;;;1.83;38.77;99939.80;2080090;93;28596;-82
2021/12/28 01:07:04;;;;;;;28.20;15.15;;;;;;;1.79;38.84;99931.45;2018132;95;26050;-82
2021/12/28 01:10:44;;;;;;;28.23;15.55;;;;;;;1.80;38.83;99934.91;2020216;95;25803;-81
2021/12/28 01:14:27;;;;;;;;;;;;;;;1.76;38.91;99937.72;2014391;95;25820;-80
2021/12/28 01:18:21;;;;;;;29.85;15.50;;;;;;;1.72;38.95;99936.18;2015991;95;25878;-81
2021/12/28 01:21:43;;;;;;;30.32;15.95;;;;;;;1.67;38.98;99923.11;1949957;99;25926;-81
2021/12/28 01:25:17;;;;;;;27.52;16.00;;;;;;;1.61;39.03;99924.95;1953274;98;25951;-82
2021/12/28 01:28:54;;;;;;;27.67;14.75;;;;;;;1.59;39.10;99929.14;1935972;100;25852;-81
2021/12/28 01:32:33;;;;;;;34.25;16.80;;;;;;;1.57;39.15;99931.14;1951446;99;26236;-82
2021/12/28 01:36:13;;;;;;;27.15;13.70;;;;;;;1.55;39.17;99922.09;1937275;99;25692;-81
2021/12/28 01:39:45;;;;;;;29.15;15.93;;;;;;;1.53;39.24;99926.25;1976049;98;25471;-82
2021/12/28 01:43:31;;;;;;;27.98;14.83;;;;;;;1.52;39.27;99926.16;1900717;101;25911;-82
2021/12/28 01:46:57;;;;;;;28.12;16.05;;;;;;;1.51;39.33;99916.69;1899606;100;25584;-82
2021/12/28 01:50:25;;;;;;;33.18;17.67;;;;;;;1.48;39.35;99913.96;1921999;101;25832;-82
2021/12/28 01:54:03;;;;;;;31.40;15.10;;;;;;;1.45;39.35;99912.11;1858059;103;26144;-82
2021/12/28 01:57:37;;;;;;;29.92;16.07;;;;;;;1.45;39.44;99903.52;1803122;107;26492;-82
2021/12/28 02:01:12;;;;;;;26.37;14.28;;;;;;;1.42;39.42;99899.13;1843486;105;25893;-83
2021/12/28 02:04:52;;;;;;;25.20;15.72;;;;;;;1.42;39.47;99910.69;1838596;105;25845;-82
2021/12/28 02:08:22;;;;;;;28.38;15.78;;;;;;;1.38;39.49;99901.95;1840471;105;25921;-80
2021/12/28 02:11:59;;;;;;;24.20;14.23;;;;;;;1.35;39.58;99909.48;1837883;105;25876;-83
2021/12/28 02:15:32;;;;;;;26.93;15.50;;;;;;;1.35;39.61;99907.30;1899904;100;26005;-80
2021/12/28 02:19:03;;;;;;;25.45;14.05;;;;;;;1.33;39.64;99908.52;2057895;93;27466;-83
2021/12/28 02:22:37;;;;;;;25.82;14.53;;;;;;;1.33;39.68;99907.63;2029302;96;25818;-82
2021/12/28 02:26:05;;;;;;;24.92;13.40;;;;;;;1.32;39.73;99903.31;2022332;96;25366;-82
2021/12/28 02:29:35;;;;;;;30.70;14.75;;;;;;;1.30;39.69;99902.33;2018539;96;26101;-81
2021/12/28 02:33:05;;;;;;;22.35;13.30;;;;;;;1.30;39.73;99897.20;1962853;98;25888;-80
2021/12/28 02:36:42;;;;;;;26.77;14.70;;;;;;;1.29;39.71;99888.62;1957969;99;25770;-83
2021/12/28 02:40:16;;;;;;;30.60;15.30;;;;;;;1.28;39.79;99888.52;1968879;100;25736;-82
2021/12/28 02:43:48;;;;;;;22.05;12.50;;;;;;;1.26;39.86;99869.19;1872568;104;25851;-81
2021/12/28 02:47:29;;;;;;;33.65;15.45;;;;;;;1.24;39.85;99864.37;1889811;102;26000;-81
2021/12/28 02:51:16;;;;;;;27.45;14.10;;;;;;;1.23;39.89;99861.33;1906455;102;25757;-82
2021/12/28 02:55:06;;;;;;;26.68;14.13;;;;;;;1.21;39.97;99860.76;1915308;99;26306;-81
2021/12/28 02:58:54;;;;;;;23.38;13.55;;;;;;;1.20;39.99;99860.29;2035485;94;25860;-82
2021/12/28 03:02:22;;;;;;;27.05;15.10;;;;;;;1.17;40.03;99855.87;2033860;95;25861;-82
2021/12/28 03:09:47;;;;;;;25.25;14.25;;;;;;;1.16;40.06;99849.86;1927807;101;25722;-82
2021/12/28 03:13:30;;;;;;;29.77;15.93;;;;;;;1.13;40.13;99848.41;1947644;100;25812;-83
2021/12/28 03:17:10;;;;;;;27.45;14.18;;;;;;;1.10;40.13;99855.95;1897851;101;25812;-83
2021/12/28 03:20:54;;;;;;;26.57;14.80;;;;;;;1.08;40.17;99843.83;1928426;100;25804;-81
2021/12/28 03:24:22;;;;;;;27.93;14.30;;;;;;;1.08;40.20;99843.83;1953740;99;26012;-83
2021/12/28 03:28:02;;;;;;;;;;;;;;;;;;;;;
2021/12/28 03:31:36;;;;;;;26.45;13.80;;;;;;;1.08;40.26;99828.05;1945902;99;26338;-81
2021/12/28 03:35:03;;;;;;;27.13;14.17;;;;;;;1.07;40.33;99838.22;1952770;99;25433;-81
2021/12/28 03:38:35;;;;;;;23.55;14.07;;;;;;;0.96;40.41;99812.00;1896573;102;25978;-82
2021/12/28 03:42:13;;;;;;;25.77;15.30;;;;;;;1.07;40.32;99822.81;1897396;101;25783;-83
2021/12/28 03:45:37;;;;;;;30.70;14.05;;;;;;;1.04;40.36;99822.25;1897531;101;25816;-82
2021/12/28 03:49:04;;;;;;;24.40;15.08;;;;;;;1.03;40.39;99814.48;1899499;102;25352;-82
2021/12/28 03:52:29;;;;;;;28.40;13.78;;;;;;;1.01;40.45;99825.94;1938832;100;25964;-83
2021/12/28 03:55:55;;;;;;;23.70;15.03;;;;;;;0.98;40.55;99812.06;1912278;102;25766;-83
2021/12/28 03:59:39;;;;;;;28.77;16.55;;;;;;;0.96;40.51;99821.38;1900656;102;25946;-81
2021/12/28 04:03:14;;;;;;;26.60;14.05;;;;;;;0.97;40.53;99803.89;1929718;101;25860;-80
2021/12/28 04:06:50;;;;;;;29.70;15.88;;;;;;;0.96;40.57;99820.10;1950346;98;26192;-79
2021/12/28 04:10:27;;;;;;;21.77;13.65;;;;;;;0.95;40.63;99811.52;1973220;98;25751;-81
2021/12/28 04:14:02;;;;;;;30.02;15.40;;;;;;;0.94;40.66;99811.02;1972458;97;25858;-82
2021/12/28 04:17:33;;;;;;;27.75;15.90;;;;;;;0.91;40.67;99805.35;1872328;102;25875;-83
2021/12/28 04:21:40;;;;;;;;;;;;;;;0.91;40.70;99804.06;1853523;103;26339;-86
2021/12/28 04:25:17;;;;;;;26.12;15.15;;;;;;;0.91;40.71;99798.94;1867787;103;25873;-80
2021/12/28 04:28:53;;;;;;;28.90;15.20;;;;;;;0.88;40.77;99807.75;1863715;102;26109;-80
2021/12/28 04:32:27;;;;;;;25.15;14.10;;;;;;;0.86;40.79;99795.23;1818148;107;25777;-79
2021/12/28 04:35:55;;;;;;;22.52;14.75;;;;;;;0.86;40.81;99787.53;1891816;101;25812;-82
2021/12/28 04:39:36;;;;;;;;;;;;;;;;;;;;;
2021/12/28 04:42:59;;;;;;;23.95;14.13;;;;;;;0.85;40.83;99788.75;1793198;106;26100;-81
2021/12/28 04:46:34;;;;;;;24.80;14.25;;;;;;;0.84;40.97;99789.53;1852780;104;25936;-80
2021/12/28 04:50:20;;;;;;;21.75;13.85;;;;;;;0.84;40.95;99785.27;1901893;100;25868;-82
2021/12/28 04:54:06;;;;;;;24.50;13.70;;;;;;;0.85;40.91;99790.91;1960591;95;36217;-82
2021/12/28 04:57:55;;;;;;;;;;;;;;;;;;;;;
2021/12/28 05:01:44;;;;;;;26.68;13.78;;;;;;;0.81;40.99;99792.84;2022587;91;26684;-80
2021/12/28 05:05:05;;;;;;;23.52;15.98;;;;;;;0.80;41.03;99796.19;2172560;86;25840;-82
2021/12/28 05:08:35;;;;;;;30.47;15.60;;;;;;;0.79;41.02;99793.14;2247117;86;25702;-81
2021/12/28 05:11:56;;;;;;;28.98;15.25;;;;;;;0.78;41.04;99787.55;2270082;86;26018;-81
2021/12/28 05:15:30;;;;;;;30.48;14.95;;;;;;;0.77;41.13;99786.16;2276266;86;25786;-81
2021/12/28 05:19:08;;;;;;;25.97;15.72;;;;;;;0.77;41.21;99792.58;2250670;85;25761;-82
2021/12/28 05:22:33;;;;;;;26.12;13.55;;;;;;;0.75;41.26;99809.19;2268783;86;25527;-82
2021/12/28 05:26:05;;;;;;;27.77;14.35;;;;;;;0.73;41.34;99800.91;2269699;86;26268;-81
2021/12/28 05:29:52;;;;;;;26.55;15.48;;;;;;;0.72;41.32;99794.91;2270932;86;25660;-84
2021/12/28 05:33:21;;;;;;;26.82;14.98;;;;;;;0.72;41.39;99800.04;2267984;86;25773;-80
2021/12/28 05:36:52;;;;;;;26.40;15.30;;;;;;;0.75;41.40;99789.06;2249563;86;25803;-82
2021/12/28 05:40:27;;;;;;;26.42;15.23;;;;;;;0.76;41.40;99790.41;2273792;86;25670;-81
2021/12/28 05:43:55;;;;;;;28.20;14.55;;;;;;;0.77;41.40;99784.47;2247797;86;25644;-82
2021/12/28 05:47:30;;;;;;;28.42;15.63;;;;;;;0.78;41.50;99801.66;2258511;85;25858;-81
2021/12/28 05:51:01;;;;;;;22.98;13.38;;;;;;;0.81;41.47;99800.53;2231143;87;25676;-83
2021/12/28 05:54:27;;;;;;;24.50;14.85;;;;;;;0.83;41.51;99798.91;2194632;88;25705;-81
2021/12/28 05:58:18;;;;;;;26.50;13.60;;;;;;;0.85;41.55;99793.88;2267210;85;25748;-83
2021/12/28 06:02:14;;;;;;;23.25;13.90;;;;;;;0.85;41.57;99781.93;2279123;85;25654;-82
2021/12/28 06:05:37;;;;;;;25.30;14.38;;;;;;;0.87;41.63;99796.11;2260454;85;26166;-81
2021/12/28 06:09:25;;;;;;;29.87;14.33;;;;;;;0.88;41.73;99804.31;2287090;85;25594;-81
2021/12/28 06:13:07;;;;;;;26.00;15.10;;;;;;;0.86;41.76;99801.64;2211472;88;26049;-82
2021/12/28 06:19:59;;;;;;;25.08;14.33;;;;;;;0.86;41.86;99812.31;2139686;91;25830;-82
2021/12/28 06:23:30;;;;;;;25.08;13.72;;;;;;;0.87;41.87;99809.81;2154278;91;25681;-82
2021/12/28 06:26:56;;;;;;;29.98;15.13;;;;;;;0.88;41.91;99803.91;2139484;91;26421;-81
2021/12/28 06:30:31;;;;;;;24.95;15.03;;;;;;;0.87;41.98;99800.83;2127483;90;25699;-80
2021/12/28 06:34:00;;;;;;;23.70;13.90;;;;;;;0.88;41.97;99798.77;2136439;91;25750;-81
2021/12/28 06:37:33;;;;;;;25.48;15.00;;;;;;;0.93;42.00;99790.89;2135662;91;25897;-82
2021/12/28 06:41:08;;;;;;;24.10;13.65;;;;;;;0.97;42.01;99789.37;2141114;89;25777;-82
2021/12/28 06:44:33;;;;;;;26.45;14.83;;;;;;;1.01;42.08;99782.70;2131016;91;25775;-81
2021/12/28 06:48:15;;;;;;;27.85;14.43;;;;;;;1.01;42.04;99791.28;2061972;94;25722;-81
2021/12/28 06:51:43;;;;;;;26.87;15.00;;;;;;;1.03;42.15;99785.84;2049360;94;25894;-81
2021/12/28 06:55:12;;;;;;;22.65;13.48;;;;;;;1.05;42.14;99789.38;2089519;93;26478;-80
2021/12/28 06:58:59;;;;;;;26.57;14.95;;;;;;;1.08;42.06;99806.61;2073021;92;25821;-81
2021/12/28 07:02:37;;;;;;;21.52;13.98;;;;;;;1.10;42.11;99803.73;2081362;92;25884;-82
2021/12/28 07:06:29;;;;;;;33.83;15.72;;;;;;;1.13;42.05;99805.17;2080055;92;35396;-81
2021/12/28 07:09:58;;;;;;;24.77;14.15;;;;;;;1.16;42.11;99802.36;2106621;91;25736;-81
2021/12/28 07:14:06;;;;;;;26.93;13.58;;;;;;;1.18;42.10;99806.27;2088128;92;25929;-82
2021/12/28 07:17:26;;;;;;;25.35;14.38;;;;;;;1.24;42.17;99811.73;2079311;93;25737;-82
2021/12/28 07:20:52;;;;;;;20.37;13.10;;;;;;;1.27;42.06;99794.33;2101939;91;26006;-81
2021/12/28 07:24:27;;;;;;;19.25;12.75;;;;;;;1.32;42.06;99797.62;2096551;91;26426;-81
2021/12/28 07:27:56;;;;;;;27.05;14.70;;;;;;;1.35;42.03;99790.07;2102811;92;25840;-81
2021/12/28 07:31:27;;;;;;;25.27;15.15;;;;;;;1.39;42.05;99793.67;2100655;92;25912;-83
2021/12/28 07:35:05;;;;;;;25.60;15.55;;;;;;;1.45;42.01;99790.11;2099777;91;25851;-82
2021/12/28 07:38:47;;;;;;;24.65;13.78;;;;;;;1.49;42.01;99784.75;2104217;91;25707;-81
2021/12/28 07:42:08;;;;;;;29.35;14.13;;;;;;;1.54;41.99;99776.85;2108064;91;25939;-81
2021/12/28 07:45:36;;;;;;;22.77;14.00;;;;;;;1.57;42.01;99774.44;2090514;92;25904;-80
2021/12/28 07:49:07;;;;;;;23.92;15.20;;;;;;;1.60;42.04;99771.62;2171323;89;25702;-83
2021/12/28 07:52:51;;;;;;;21.93;14.58;;;;;;;1.65;42.00;99770.55;2205265;88;25708;-82
2021/12/28 07:56:15;;;;;;;25.05;14.47;;;;;;;1.70;42.01;99765.24;2197661;88;25832;-83
2021/12/28 07:59:40;;;;;;;22.65;12.85;;;;;;;1.75;41.98;99762.48;2165548;89;25901;-80
2021/12/28 08:03:12;;;;;;;28.07;14.95;;;;;;;1.80;41.97;99767.45;2148283;89;25860;-82
2021/12/28 08:06:39;;;;;;;21.57;12.98;;;;;;;1.85;41.99;99767.66;2188514;88;25815;-82
2021/12/28 08:14:18;;;;;;;21.55;13.85;;;;;;;1.94;41.95;99759.12;2072435;93;25855;-80
2021/12/28 08:17:46;;;;;;;26.05;14.68;;;;;;;1.99;41.97;99768.32;1974574;97;26377;-79
2021/12/28 08:21:21;;;;;;;19.95;13.68;;;;;;;2.02;41.94;99761.63;1970740;98;25891;-81
2021/12/28 08:24:52;;;;;;;29.10;14.83;;;;;;;2.06;41.94;99758.42;1938366;99;25759;-81
2021/12/28 08:32:05;;;;;;;26.35;15.00;;;;;;;2.15;41.91;99774.67;1949281;98;26148;-81
2021/12/28 08:35:46;;;;;;;23.30;14.00;;;;;;;2.20;41.90;99768.07;1946433;99;25815;-82
2021/12/28 08:39:11;;;;;;;23.25;14.45;;;;;;;2.24;41.88;99773.83;1971620;98;26626;-82
2021/12/28 08:42:43;;;;;;;21.00;13.85;;;;;;;2.27;41.85;99769.24;1955461;98;25900;-81
2021/12/28 08:46:29;;;;;;;24.43;14.60;;;;;;;2.30;41.87;99765.53;1958217;98;25810;-82
2021/12/28 08:49:43;;;;;;;26.93;15.45;;;;;;;2.33;41.86;99772.10;1979873;96;26471;-82
2021/12/28 08:53:18;;;;;;;27.25;14.80;;;;;;;2.34;41.85;99760.59;2048425;95;26317;-81
2021/12/28 08:56:47;;;;;;;22.45;13.98;;;;;;;2.38;41.83;99756.87;2042588;95;25882;-81
2021/12/28 09:00:20;;;;;;;23.55;14.43;;;;;;;2.42;41.82;99748.48;2031923;95;26004;-82
2021/12/28 09:03:55;;;;;;;22.22;15.08;;;;;;;2.44;41.84;99745.59;2032576;95;26244;-82
2021/12/28 09:07:21;;;;;;;24.32;14.53;;;;;;;2.49;41.82;99744.09;2053642;93;25905;-82
2021/12/28 09:10:52;;;;;;;22.02;14.73;;;;;;;2.52;41.79;99745.52;2000154;97;26582;-82
2021/12/28 09:14:47;;;;;;;;;;;;;;;;;;;;;
2021/12/28 09:18:02;;;;;;;23.87;14.83;;;;;;;2.56;41.83;99734.13;1957907;98;26562;-81
2021/12/28 09:21:32;;;;;;;22.02;15.43;;;;;;;2.60;41.82;99721.91;1979613;97;25806;-81
2021/12/28 09:25:18;;;;;;;21.00;14.10;;;;;;;2.62;41.81;99717.22;2022156;96;25540;-82
2021/12/28 09:29:01;;;;;;;26.45;15.80;;;;;;;2.66;41.78;99725.13;2118995;90;26062;-82
2021/12/28 09:32:35;;;;;;;21.57;13.72;;;;;;;2.70;41.81;99708.13;2078565;93;25834;-83
2021/12/28 09:36:07;;;;;;;25.88;14.98;;;;;;;2.73;41.82;99709.14;2077727;92;25829;-81
2021/12/28 09:40:01;;;;;;;25.48;15.65;;;;;;;2.76;41.88;99694.25;2112596;92;25783;-81
2021/12/28 09:43:33;;;;;;;24.65;15.23;;;;;;;2.80;41.88;99696.13;2107396;91;26157;-83
2021/12/28 09:46:49;;;;;;;26.82;15.60;;;;;;;2.83;41.90;99686.88;2168994;87;25855;-83
2021/12/28 09:50:17;;;;;;;20.05;13.95;;;;;;;2.87;41.86;99680.55;2269767;85;25908;-83
2021/12/28 09:53:55;;;;;;;22.17;14.33;;;;;;;2.89;41.90;99686.25;2260421;85;25823;-82
2021/12/28 09:57:28;;;;;;;27.35;15.95;;;;;;;2.91;41.90;99685.05;2260531;86;25817;-84
2021/12/28 10:01:10;;;;;;;21.25;13.80;;;;;;;2.92;41.92;99685.50;2224029;88;25908;-82
2021/12/28 10:04:44;;;;;;;26.20;14.55;;;;;;;2.93;41.94;99711.30;2126710;91;26372;-82
2021/12/28 10:08:25;;;;;;;24.15;14.40;;;;;;;2.94;42.01;99678.73;2115125;92;26245;-84
2021/12/28 10:12:00;;;;;;;21.37;14.07;;;;;;;2.95;42.08;99701.09;2113565;91;25779;-83
2021/12/28 10:15:35;;;;;;;22.35;14.68;;;;;;;2.98;42.11;99690.52;2100606;91;25972;-81
2021/12/28 10:19:30;;;;;;;23.02;13.72;;;;;;;2.99;42.18;99693.55;2112811;91;25849;-81
2021/12/28 10:23:25;;;;;;;21.80;14.65;;;;;;;3.00;42.22;99696.62;2107873;92;25964;-82
2021/12/28 10:27:12;;;;;;;20.32;13.50;;;;;;;3.02;42.25;99664.48;2057754;93;26136;-83
2021/12/28 10:30:51;;;;;;;;;;;;;;;3.06;42.26;99658.64;1984600;96;25885;-87
2021/12/28 10:34:26;;;;;;;26.02;15.45;;;;;;;3.08;42.27;99668.19;2022526;97;25932;-78
2021/12/28 10:37:57;;;;;;;26.93;15.32;;;;;;;3.09;42.33;99671.64;2008882;97;25601;-79
2021/12/28 10:41:26;;;;;;;19.02;12.82;;;;;;;3.11;42.34;99670.03;2023020;94;25917;-78
2021/12/28 10:45:07;;;;;;;30.95;15.93;;;;;;;3.13;42.39;99667.09;2035634;96;25781;-84
2021/12/28 10:52:44;;;;;;;21.93;15.05;;;;;;;3.22;42.47;99653.72;1996285;96;26134;-82
2021/12/28 10:56:06;;;;;;;22.77;15.18;;;;;;;3.26;42.44;99646.58;1991454;96;25814;-84
2021/12/28 11:03:56;;;;;;;21.65;13.15;;;;;;;3.32;42.50;99661.01;1983803;96;25927;-81
2021/12/28 11:07:24;;;;;;;21.87;14.70;;;;;;;3.34;42.54;99659.36;1998025;96;25815;-79
2021/12/28 11:11:05;;;;;;;20.27;13.20;;;;;;;3.36;42.53;99651.70;2009403;95;25883;-81
2021/12/28 11:14:55;;;;;;;16.35;10.18;;;;;;;3.37;45.10;99644.44;2067744;92;25867;-84
2021/12/28 11:18:35;;;;;;;17.92;12.07;;;;;;;3.79;47.45;99631.97;2056809;93;26416;-79
2021/12/28 11:22:15;;;;;;;17.92;12.75;;;;;;;3.84;47.45;99630.84;2062190;93;25764;-85
2021/12/28 11:26:33;;;;;;;14.80;12.40;;;;;;;3.82;47.37;99623.89;2067204;93;25823;-82
2021/12/28 11:30:27;;;;;;;21.65;12.78;;;;;;;3.79;47.41;99612.63;2019095;95;25968;-84
2021/12/28 11:33:59;;;;;;;21.50;13.38;;;;;;;3.79;47.43;99602.31;2017008;95;25871;-84
2021/12/28 11:37:34;;;;;;;14.80;11.83;;;;;;;3.81;47.37;99598.91;2012300;95;25862;-80
2021/12/28 11:41:27;;;;;;;;;;;;;;;;;;;;;
2021/12/28 11:45:19;;;;;;;;;;;;;;;;;;;;;
2021/12/28 11:49:14;;;;;;;;;;;;;;;;;;;;;
2021/12/28 11:52:53;;;;;;;20.37;13.50;;;;;;;3.87;46.28;99578.10;1950445;99;25893;-84
2021/12/28 11:56:37;;;;;;;16.87;13.07;;;;;;;3.88;45.95;99563.51;1921724;100;25897;-85
2021/12/28 12:00:30;;;;;;;17.45;13.50;;;;;;;3.88;45.79;99561.84;1912074;100;26074;-85
2021/12/28 12:03:59;;;;;;;18.35;12.45;;;;;;;3.89;45.63;99547.23;1920880;100;25924;-87
2021/12/28 12:12:53;;;;;;;22.37;13.20;;;;;;;4.10;47.91;99527.37;2003291;98;25962;-86
2021/12/28 12:16:36;;;;;;;22.80;13.88;;;;;;;4.17;48.11;99540.95;2015684;95;25919;-87
2021/12/28 12:20:27;;;;;;;18.52;13.72;;;;;;;4.17;47.86;99540.07;2031390;95;25936;-86
2021/12/28 12:24:14;;;;;;;21.65;14.15;;;;;;;4.15;47.68;99514.63;2032235;95;25767;-89
2021/12/28 12:28:35;;;;;;;;;;;;;;;;;;;;;
2021/12/28 12:31:44;;;;;;;;;;;;;;;4.20;48.27;99506.65;2010109;95;25824;-86
2021/12/28 12:35:52;;;;;;;20.17;14.43;;;;;;;4.18;48.11;99514.31;2008785;96;25789;-88
2021/12/28 12:39:29;;;;;;;20.92;15.40;;;;;;;4.15;47.75;99517.20;2036827;92;25811;-84
2021/12/28 12:43:18;;;;;;;22.80;15.88;;;;;;;4.13;47.45;99513.71;2091310;90;25819;-82
2021/12/28 12:47:07;;;;;;;25.55;16.52;;;;;;;4.13;47.35;99526.61;2063501;92;26027;-88
2021/12/28 12:50:41;;;;;;;25.40;15.53;;;;;;;4.11;47.07;99522.67;1974369;98;26635;-88
2021/12/28 12:55:05;;;;;;;24.45;16.10;;;;;;;4.11;46.85;99535.98;1975549;97;44516;-86
2021/12/28 12:59:20;;;;;;;;;;;;;;;;;;;;;
2021/12/28 13:02:55;;;;;;;24.05;15.38;;;;;;;4.06;46.43;99538.41;1906691;102;25995;-88
2021/12/28 13:07:11;;;;;;;25.75;16.60;;;;;;;4.03;46.28;99545.62;1836084;105;25954;-86
2021/12/28 13:11:15;;;;;;;;;;;;;;;;;;;;;
2021/12/28 13:15:01;;;;;;;;;;;;;;;;;;;;;
2021/12/28 13:22:33;;;;;;;23.87;16.65;;;;;;;4.00;45.65;99547.20;1834057;105;26105;-83
2021/12/28 13:26:15;;;;;;;23.90;16.55;;;;;;;4.00;45.52;99535.19;1829982;105;25980;-88
2021/12/28 13:30:00;;;;;;;21.70;16.52;;;;;;;3.99;45.38;99526.13;1907632;100;25417;-80
2021/12/28 13:33:46;;;;;;;;;;;;;;;;;;;;;
2021/12/28 13:37:49;;;;;;;;;;;;;;;;;;;;;
2021/12/28 13:45:46;;;;;;;;;;;;;;;3.96;45.07;99506.66;1924381;98;25979;-80
2021/12/28 13:49:26;;;;;;;26.73;16.05;;;;;;;3.96;44.98;99519.56;1972393;98;26386;-87
2021/12/28 13:53:45;;;;;;;24.75;16.65;;;;;;;3.93;44.90;99519.03;1970313;98;25946;-89
2021/12/28 14:01:45;;;;;;;24.77;15.58;;;;;;;3.90;44.81;99475.50;1926955;98;25438;-89
2021/12/28 14:05:30;;;;;;;20.40;15.05;;;;;;;3.87;44.76;99469.81;1923389;101;25820;-84
2021/12/28 14:09:27;;;;;;;20.40;15.93;;;;;;;3.86;44.72;99456.88;1929466;99;25839;-84
2021/12/28 14:17:29;;;;;;;24.90;16.65;;;;;;;3.82;44.67;99468.79;1768189;107;25972;-81
2021/12/28 14:21:29;;;;;;;25.17;16.77;;;;;;;3.79;44.66;99461.81;1726447;112;26485;-88
2021/12/28 14:25:19;;;;;;;25.00;16.87;;;;;;;3.77;44.62;99479.33;1782107;108;26078;-82
2021/12/28 14:29:43;;;;;;;;;;;;;;;;;;;;;
2021/12/28 14:37:28;;;;;;;23.87;16.93;;;;;;;3.83;45.95;99462.80;1825282;104;34823;-80
2021/12/28 14:41:07;;;;;;;29.42;18.80;;;;;;;3.81;45.84;99455.83;1862722;103;26107;-84
2021/12/28 14:44:54;;;;;;;29.65;16.85;;;;;;;3.77;45.72;99462.58;1887666;98;26045;-79
2021/12/28 14:48:32;;;;;;;27.60;17.87;;;;;;;3.74;45.68;99453.44;1984233;96;25437;-81
2021/12/28 14:52:32;;;;;;;28.15;18.45;;;;;;;3.72;45.61;99461.13;2064437;95;25790;-82
2021/12/28 14:59:59;;;;;;;30.45;17.67;;;;;;;3.69;45.46;99496.23;2008164;96;25813;-78
2021/12/28 15:03:49;;;;;;;28.92;19.32;;;;;;;3.66;45.38;99492.25;2034491;93;26575;-83
2021/12/28 15:07:48;;;;;;;;;;;;;;;;;;;;;
2021/12/28 15:11:12;;;;;;;23.52;17.20;;;;;;;3.64;45.31;99502.91;2045026;93;26089;-81
2021/12/28 15:19:00;;;;;;;25.90;17.77;;;;;;;3.65;45.26;99482.36;2183320;87;26016;-88
2021/12/28 15:23:15;;;;;;;21.85;17.23;;;;;;;3.64;45.20;99484.86;2183583;89;26410;-84
2021/12/28 15:32:26;;;;;;;26.50;16.70;;;;;;;3.63;45.14;99489.14;1979400;97;25950;-82
2021/12/28 15:36:13;;;;;;;25.60;16.15;;;;;;;3.63;45.12;99496.00;1969399;97;26635;-83
2021/12/28 15:44:33;;;;;;;;;;;;;;;;;;;;;
2021/12/28 15:48:02;;;;;;;24.72;15.72;;;;;;;3.62;45.05;99477.50;1941376;100;25496;-82
2021/12/28 15:51:38;;;;;;;24.72;17.77;;;;;;;3.61;45.04;99469.28;1947864;99;25780;-81
2021/12/28 15:55:11;;;;;;;26.00;14.63;;;;;;;3.61;45.01;99458.59;1928224;100;25833;-75
2021/12/28 15:58:50;;;;;;;24.05;15.18;;;;;;;4.16;51.67;99459.23;1905929;102;26005;-80
2021/12/28 16:02:23;;;;;;;29.05;16.30;;;;;;;4.21;51.44;99440.91;1926046;98;25905;-83
2021/12/28 16:06:19;;;;;;;23.32;14.63;;;;;;;4.19;51.14;99441.70;1953282;99;26110;-83
2021/12/28 16:09:58;;;;;;;25.12;15.45;;;;;;;4.16;54.67;99437.31;1930208;100;25754;-82
2021/12/28 16:14:18;;;;;;;27.98;15.90;;;;;;;4.48;53.05;99425.88;1938528;99;32611;-87
2021/12/28 16:18:10;;;;;;;;;;;;;;;;;;;;;
2021/12/28 16:22:00;;;;;;;22.02;15.63;;;;;;;4.20;52.33;99419.81;1904071;102;25770;-83
2021/12/28 16:25:42;;;;;;;25.23;15.48;;;;;;;4.08;52.19;99404.33;1896786;98;25844;-83
2021/12/28 16:29:33;;;;;;;22.32;15.70;;;;;;;4.01;52.00;99405.83;2032743;95;26088;-83
2021/12/28 16:33:43;;;;;;;21.23;15.93;;;;;;;3.96;51.81;99411.25;2001979;96;26238;-85
2021/12/28 16:37:31;;;;;;;28.15;15.63;;;;;;;3.93;51.61;99400.83;1862833;104;25984;-83
2021/12/28 16:41:56;;;;;;;23.73;15.93;;;;;;;3.91;51.39;99399.89;1910745;101;26292;-83
2021/12/28 16:45:53;;;;;;;20.30;14.18;;;;;;;3.91;51.20;99402.05;1920262;100;26126;-82
2021/12/28 16:49:34;;;;;;;19.32;14.03;;;;;;;3.89;51.05;99395.11;1930516;100;26136;-81
2021/12/28 16:53:11;;;;;;;17.70;12.93;;;;;;;3.85;50.96;99402.25;1893643;102;25764;-85
2021/12/28 16:57:04;;;;;;;18.05;12.40;;;;;;;3.83;51.95;99394.90;1926633;101;26253;-86
2021/12/28 17:00:31;;;;;;;20.37;15.00;;;;;;;3.89;51.24;99396.41;1926033;101;25937;-84
2021/12/28 17:04:02;;;;;;;24.30;13.70;;;;;;;3.90;51.08;99398.15;1921068;101;25783;-86
2021/12/28 17:07:31;;;;;;;26.73;14.15;;;;;;;3.86;50.85;99392.02;1927749;97;26191;-85
2021/12/28 17:10:55;;;;;;;18.45;14.28;;;;;;;3.83;50.74;99394.90;2041074;95;25907;-85
2021/12/28 17:14:31;;;;;;;;;;;;;;;;;;;;;
2021/12/28 17:18:16;;;;;;;23.87;13.80;;;;;;;3.76;50.58;99391.23;2051314;95;25712;-85
2021/12/28 17:22:00;;;;;;;;;;;;;;;;;;;;;
2021/12/28 17:25:36;;;;;;;14.95;10.58;;;;;;;4.46;60.72;99385.84;1990232;97;25902;-86
2021/12/28 17:29:12;;;;;;;20.35;12.05;;;;;;;5.53;57.74;99395.02;1952660;99;25897;-85
2021/12/28 17:32:52;;;;;;;14.53;12.30;;;;;;;5.39;53.68;99371.38;1997750;93;26553;-87
2021/12/28 17:36:32;;;;;;;21.30;12.33;;;;;;;4.98;52.66;99377.11;2063410;92;26204;-86
2021/12/28 17:40:21;;;;;;;17.10;12.10;;;;;;;4.60;52.17;99373.37;2066760;92;25857;-85
2021/12/28 17:43:52;;;;;;;17.00;12.00;;;;;;;4.29;51.70;99373.20;2028554;94;25800;-93
2021/12/28 17:47:38;;;;;;;17.07;12.93;;;;;;;4.04;51.20;99365.96;2008158;95;26862;-84
2021/12/28 17:55:11;;;;;;;17.10;12.33;;;;;;;3.67;50.69;99353.53;1892723;102;25983;-89
2021/12/28 17:58:52;;;;;;;19.67;12.63;;;;;;;3.49;50.41;99352.07;1892606;102;26473;-89
2021/12/28 18:02:39;;;;;;;17.27;11.80;;;;;;;3.40;50.82;99353.02;1898095;101;26507;-81
2021/12/28 18:06:30;;;;;;;14.53;11.87;;;;;;;3.47;50.84;99370.45;1902211;103;25827;-77
2021/12/28 18:10:23;;;;;;;17.77;12.05;;;;;;;3.54;50.68;99371.55;1891954;102;25962;-84
2021/12/28 18:13:55;;;;;;;18.17;13.15;;;;;;;3.58;50.49;99372.14;1908242;99;25702;-93
2021/12/28 18:17:41;;;;;;;15.63;12.25;;;;;;;3.60;50.54;99380.78;1874994;103;25818;-79
2021/12/28 18:21:54;;;;;;;19.25;11.83;;;;;;;3.60;50.37;99371.77;1944244;101;26389;-88
2021/12/28 18:25:29;;;;;;;20.05;12.05;;;;;;;3.60;50.24;99349.86;1946368;100;25803;-84
2021/12/28 18:29:10;;;;;;;16.25;11.78;;;;;;;3.60;50.10;99352.44;1920528;102;25867;-87
2021/12/28 18:33:10;;;;;;;15.20;11.80;;;;;;;3.59;50.11;99349.41;1891070;102;25787;-82
2021/12/28 18:37:04;;;;;;;;;;;;;;;;;;;;;
2021/12/28 18:40:45;;;;;;;17.37;11.95;;;;;;;3.60;49.85;99342.55;1897239;101;26181;-83
2021/12/28 18:44:40;;;;;;;17.00;12.15;;;;;;;3.59;49.69;99342.97;1888715;103;25816;-84
2021/12/28 18:48:20;;;;;;;;;;;;;;;;;;;;;
2021/12/28 18:55:47;;;;;;;21.15;13.05;;;;;;;3.58;49.28;99357.97;1722891;110;25881;-88
2021/12/28 18:59:47;;;;;;;17.50;12.20;;;;;;;3.58;49.20;99367.38;1737201;111;25904;-89
2021/12/28 19:03:35;;;;;;;15.40;11.88;;;;;;;3.57;49.05;99360.47;1742257;110;26177;-81